ADDS METAR Data INFO
IDs: Format: Raw Decoded Include TAF

Data at: 2317 UTC 15 Jul 2018

KFCM 152253Z 27010KT 10SM CLR 30/21 A2994 RMK AO2 SLP131 T03000206 $
KFCM 152153Z 31006KT 10SM FEW042 30/20 A2994 RMK AO2 SLP134 T03000200 $
KFCM 152053Z 32008KT 10SM CLR 31/19 A2995 RMK AO2 SLP136 T03110194 55006 $
KFCM 151953Z 25005KT 10SM CLR 31/19 A2995 RMK AO2 SLP135 T03060194 $
KFCM 151853Z 27008KT 10SM FEW037 30/21 A2996 RMK AO2 SLP138 T03000206 $
KFCM 151753Z 24006KT 10SM CLR 29/21 A2997 RMK AO2 SLP143 T02890206 10300 20222 58005 $
KFCM 151653Z 27006KT 10SM FEW029 FEW049 SCT065 28/21 A3000 RMK AO2 SLP152 T02780211 $
KFCM 151553Z 25004KT 10SM CLR 28/20 A3000 RMK AO2 SLP150 T02780200 $
KFCM 151453Z 28004KT 10SM FEW021 27/21 A2999 RMK AO2 SLP149 T02720211 53001 $
KFCM 151353Z VRB03KT 10SM CLR 27/22 A2998 RMK AO2 SLP146 T02670217 $
KFCM 151253Z 00000KT 10SM CLR 24/22 A2999 RMK AO2 SLP149 T02390217 $
KFCM 151153Z 00000KT 5SM BR CLR 22/21 A2998 RMK AO2 SLP147 T02220206 10228 20217 53001 $
KFCM 151053Z 00000KT 5SM BR CLR 22/20 A2999 RMK AO2 SLP148 T02170200 $
KFCM 150953Z AUTO 00000KT 9SM CLR 22/21 A2998 RMK AO2 SLP144 T02220206 $
KFCM 150853Z AUTO 00000KT 10SM CLR 22/19 A2998 RMK AO2 SLP147 T02170194 56003 $
KFCM 150753Z AUTO 00000KT 10SM CLR 22/19 A2998 RMK AO2 SLP146 T02220194 $
KFCM 150653Z AUTO 00000KT 10SM CLR 22/19 A2998 RMK AO2 SLP146 T02220194 $
KFCM 150553Z AUTO 00000KT 10SM CLR 23/19 A2999 RMK AO2 SLP150 T02280194 10294 20228 403110194 50002 $
KFCM 150453Z AUTO 00000KT 10SM CLR 24/19 A3001 RMK AO2 SLP155 T02390189 $
KFCM 150353Z AUTO 16004KT 10SM CLR 25/18 A3000 RMK AO2 SLP151 T02500183 $
KFCM 150253Z 14006KT 10SM CLR 24/18 A2999 RMK AO2 SLP148 T02440178 53004 $
KFCM 150153Z 12006KT 10SM CLR 27/17 A2997 RMK AO2 SLP144 T02670172 $
KFCM 150053Z 13006KT 10SM CLR 28/17 A2997 RMK AO2 SLP143 T02830172 $
KFCM 142353Z 17006KT 10SM CLR 29/17 A2997 RMK AO2 SLP144 T02940167 10311 20289 58009 $
KFCM 142253Z 15007KT 10SM FEW050 30/18 A2998 RMK AO2 SLP147 T03000178 $
KFCM 142153Z 12007KT 10SM CLR 31/17 A3000 RMK AO2 SLP153 T03060172 $
KFCM 142053Z 15007KT 10SM FEW049 FEW060 31/19 A3000 RMK AO2 SLP154 T03060194 58010 $
KFCM 141953Z 16009KT 10SM FEW048 31/18 A3002 RMK AO2 SLP159 T03060183 $
KFCM 141853Z 10006KT 10SM CLR 30/17 A3002 RMK AO2 SLP162 T03000167 $
KFCM 141753Z 12005KT 10SM SCT036 BKN045 29/19 A3003 RMK AO2 SLP164 T02940194 10300 20206 58011 $
KFCM 141653Z VRB04KT 10SM FEW032 28/20 A3004 RMK AO2 SLP168 T02830200 $
KFCM 141553Z 00000KT 10SM FEW025 27/21 A3006 RMK AO2 SLP173 T02720206 $
KFCM 141453Z 00000KT 10SM CLR 26/21 A3007 RMK AO2 SLP175 T02610211 53005 $
KFCM 141353Z 00000KT 8SM CLR 24/21 A3006 RMK AO2 SLP174 T02390211 $
KFCM 141253Z 00000KT 10SM CLR 23/21 A3005 RMK AO2 SLP172 T02280206 $
KFCM 141212Z 00000KT 4SM BR FEW002 21/20 A3006 RMK AO2 T02110200 $
KFCM 141200Z 00000KT 2SM BR SCT002 21/19 A3005 RMK AO2 T02060194 $
KFCM 141153Z 00000KT 1 1/4SM BR BKN002 21/19 A3005 RMK AO2 SLP171 70011 T02060194 10211 20194 53005 $
KFCM 141150Z 00000KT 1SM BR VV001 21/19 A3005 RMK AO2 $
KFCM 141146Z 00000KT 1/2SM FG VV002 21/19 A3005 RMK AO2 T02060189 $
KFCM 141135Z 00000KT 1/4SM FG VV001 20/19 A3005 RMK AO2 T02000189 $
KFCM 141126Z 00000KT 3/4SM BR VV002 21/19 A3005 RMK AO2 T02060189 $
KFCM 141122Z 00000KT 1SM BR 21/19 A3005 RMK AO2 T02060189 $